Time;durP1;ratioP1;P1;durP2;ratioP2;P2;SDS_P1;SDS_P2;PMS_P1;PMS_P2;Temp;Humidity;BMP_temperature;BMP_pressure;BME280_temperature;BME280_humidity;BME280_pressure;Samples;Min_cycle;Max_cycle;Signal;HPM_P1;HPM_P2
2023/05/18 00:02:14;;;;;;;1.02;0.93;;;;;;;;;;5121901;28;20202;-64
2023/05/18 00:04:42;;;;;;;1.42;0.90;;;;;;;;;;5122242;28;20279;-64
2023/05/18 00:07:10;;;;;;;1.40;1.10;;;;;;;;;;5122161;28;20297;-64
2023/05/18 00:09:38;;;;;;;1.00;0.90;;;;;;;;;;5122204;28;20295;-65
2023/05/18 00:12:06;;;;;;;1.00;0.90;;;;;;;;;;5122193;28;20210;-64
2023/05/18 00:14:35;;;;;;;1.50;1.00;;;;;;;;;;5113439;28;20214;-64
2023/05/18 00:17:02;;;;;;;1.00;0.90;;;;;;;;;;5121756;28;20203;-64
2023/05/18 00:19:30;;;;;;;1.10;1.00;;;;;;;;;;5121891;28;20426;-64
2023/05/18 00:21:57;;;;;;;0.90;0.90;;;;;;;;;;5121630;28;20273;-67
2023/05/18 00:24:24;;;;;;;1.45;1.10;;;;;;;;;;5121613;28;20497;-64
2023/05/18 00:26:52;;;;;;;1.13;1.10;;;;;;;;;;5123966;27;20253;-65
2023/05/18 00:29:19;;;;;;;1.33;1.05;;;;;;;;;;5141843;27;20202;-66
2023/05/18 00:31:48;;;;;;;0.80;0.80;;;;;;;;;;5141773;27;20574;-66
2023/05/18 00:34:16;;;;;;;1.00;0.95;;;;;;;;;;5142123;27;20344;-71
2023/05/18 00:36:43;;;;;;;1.02;1.00;;;;;;;;;;5141790;27;20590;-67
2023/05/18 00:39:11;;;;;;;0.80;0.80;;;;;;;;;;5141251;27;20237;-66
2023/05/18 00:41:38;;;;;;;1.00;0.90;;;;;;;;;;5141445;27;20199;-64
2023/05/18 00:44:06;;;;;;;0.82;0.82;;;;;;;;;;5141593;27;20210;-65
2023/05/18 00:46:34;;;;;;;1.60;1.10;;;;;;;;;;5141481;27;20202;-64
2023/05/18 00:49:03;;;;;;;1.10;1.00;;;;;;;;;;5141857;27;20489;-66
2023/05/18 00:51:32;;;;;;;1.13;1.00;;;;;;;;;;5141416;27;20507;-66
2023/05/18 00:54:01;;;;;;;0.88;0.88;;;;;;;;;;5141649;27;20216;-65
2023/05/18 00:56:32;;;;;;;1.10;1.00;;;;;;;;;;5141190;27;20295;-64
2023/05/18 00:59:02;;;;;;;1.00;1.00;;;;;;;;;;5141835;27;20202;-64
2023/05/18 01:01:30;;;;;;;1.33;1.10;;;;;;;;;;5141423;27;20596;-64
2023/05/18 01:04:01;;;;;;;1.35;0.90;;;;;;;;;;5141687;27;20202;-65
2023/05/18 01:06:31;;;;;;;1.02;0.90;;;;;;;;;;5141108;27;20289;-65
2023/05/18 01:08:59;;;;;;;1.35;1.00;;;;;;;;;;5141598;27;20562;-66
2023/05/18 01:11:30;;;;;;;1.35;1.08;;;;;;;;;;5141094;27;20237;-66
2023/05/18 01:14:01;;;;;;;0.80;0.80;;;;;;;;;;5141324;27;20210;-66
2023/05/18 01:16:33;;;;;;;1.00;0.90;;;;;;;;;;5141494;27;20209;-66
2023/05/18 01:19:04;;;;;;;0.93;0.93;;;;;;;;;;5140887;27;20202;-68
2023/05/18 01:21:46;;;;;;;1.13;1.02;;;;;;;;;;5140960;27;20199;-66
2023/05/18 01:24:24;;;;;;;1.00;1.00;;;;;;;;;;5140723;27;20210;-66
2023/05/18 01:26:56;;;;;;;1.20;1.10;;;;;;;;;;5140818;27;20202;-66
2023/05/18 01:29:25;;;;;;;1.10;0.80;;;;;;;;;;5140713;27;20202;-66
2023/05/18 01:31:53;;;;;;;0.82;0.70;;;;;;;;;;5140583;27;20222;-66
2023/05/18 01:34:21;;;;;;;0.80;0.80;;;;;;;;;;5140735;27;20202;-66
2023/05/18 01:36:48;;;;;;;0.90;0.90;;;;;;;;;;5140559;27;20210;-66
2023/05/18 01:39:16;;;;;;;1.00;0.90;;;;;;;;;;5140782;27;20210;-64
2023/05/18 01:41:47;;;;;;;1.05;0.98;;;;;;;;;;5140816;27;20198;-66
2023/05/18 01:44:19;;;;;;;0.95;0.90;;;;;;;;;;5140597;27;20489;-66
2023/05/18 01:46:52;;;;;;;0.82;0.80;;;;;;;;;;5140571;27;20202;-64
2023/05/18 01:49:24;;;;;;;1.15;1.05;;;;;;;;;;5140506;27;20202;-64
2023/05/18 01:51:52;;;;;;;1.10;0.90;;;;;;;;;;5139733;27;20596;-65
2023/05/18 01:54:20;;;;;;;0.80;0.80;;;;;;;;;;5140150;27;20203;-65
2023/05/18 01:56:48;;;;;;;2.13;0.90;;;;;;;;;;5140390;27;20214;-66
2023/05/18 01:59:17;;;;;;;0.90;0.85;;;;;;;;;;5140472;27;20473;-68
2023/05/18 02:01:45;;;;;;;1.10;1.00;;;;;;;;;;5140289;27;20210;-65
2023/05/18 02:04:12;;;;;;;1.58;1.10;;;;;;;;;;5140225;27;20213;-65
2023/05/18 02:06:39;;;;;;;0.85;0.85;;;;;;;;;;5140328;27;20202;-64
2023/05/18 02:09:07;;;;;;;1.42;0.93;;;;;;;;;;5140120;27;20221;-66
2023/05/18 02:11:35;;;;;;;1.00;0.90;;;;;;;;;;5140284;27;20614;-64
2023/05/18 02:14:02;;;;;;;0.93;0.90;;;;;;;;;;5140254;27;20202;-64
2023/05/18 02:16:31;;;;;;;1.00;0.90;;;;;;;;;;5139944;27;20203;-65
2023/05/18 02:18:59;;;;;;;1.02;0.80;;;;;;;;;;5140129;27;20202;-64
2023/05/18 02:21:26;;;;;;;1.00;0.90;;;;;;;;;;5139972;27;20534;-66
2023/05/18 02:23:53;;;;;;;0.80;0.80;;;;;;;;;;5139924;27;20637;-66
2023/05/18 02:26:21;;;;;;;1.02;0.90;;;;;;;;;;5139926;27;20202;-65
2023/05/18 02:28:48;;;;;;;0.88;0.85;;;;;;;;;;5139639;27;20505;-66
2023/05/18 02:31:15;;;;;;;1.20;1.10;;;;;;;;;;5139827;27;20237;-65
2023/05/18 02:33:44;;;;;;;0.93;0.82;;;;;;;;;;5140130;27;20267;-66
2023/05/18 02:36:12;;;;;;;1.10;0.80;;;;;;;;;;5139625;27;20217;-66
2023/05/18 02:38:39;;;;;;;0.80;0.80;;;;;;;;;;5140332;27;20206;-64
2023/05/18 02:41:07;;;;;;;1.08;0.98;;;;;;;;;;5139539;27;20498;-66
2023/05/18 02:43:34;;;;;;;1.42;1.10;;;;;;;;;;5139521;27;20609;-66
2023/05/18 02:46:02;;;;;;;0.95;0.95;;;;;;;;;;5139845;27;20202;-66
2023/05/18 02:48:29;;;;;;;0.90;0.80;;;;;;;;;;5139323;27;20482;-66
2023/05/18 02:50:58;;;;;;;1.00;0.90;;;;;;;;;;5139206;27;20234;-66
2023/05/18 02:53:26;;;;;;;1.00;0.88;;;;;;;;;;5139628;27;20210;-66
2023/05/18 02:55:56;;;;;;;0.80;0.80;;;;;;;;;;5139773;27;20305;-63
2023/05/18 02:58:25;;;;;;;0.80;0.80;;;;;;;;;;5139326;27;20535;-64
2023/05/18 03:00:55;;;;;;;0.75;0.75;;;;;;;;;;5139564;27;20198;-64
2023/05/18 03:03:24;;;;;;;1.00;0.90;;;;;;;;;;5139141;27;20214;-66
2023/05/18 03:05:52;;;;;;;1.10;1.08;;;;;;;;;;5139117;27;20255;-64
2023/05/18 03:08:22;;;;;;;1.20;0.98;;;;;;;;;;5139282;27;20203;-65
2023/05/18 03:10:50;;;;;;;0.75;0.75;;;;;;;;;;5139347;27;20237;-65
2023/05/18 03:13:17;;;;;;;1.00;0.88;;;;;;;;;;5139140;27;20593;-64
2023/05/18 03:15:45;;;;;;;0.90;0.90;;;;;;;;;;5139316;27;20202;-67
2023/05/18 03:18:13;;;;;;;0.82;0.82;;;;;;;;;;5139251;27;20470;-66
2023/05/18 03:20:41;;;;;;;0.70;0.70;;;;;;;;;;5139125;27;20199;-64
2023/05/18 03:23:09;;;;;;;0.88;0.80;;;;;;;;;;5139236;27;20210;-64
2023/05/18 03:25:38;;;;;;;0.60;0.60;;;;;;;;;;5138849;27;20582;-64
2023/05/18 03:28:05;;;;;;;0.80;0.80;;;;;;;;;;5138916;27;20234;-65
2023/05/18 03:30:33;;;;;;;1.23;0.82;;;;;;;;;;5138995;27;20221;-65
2023/05/18 03:33:00;;;;;;;0.93;0.80;;;;;;;;;;5139256;27;20262;-65
2023/05/18 03:35:28;;;;;;;0.77;0.77;;;;;;;;;;5139227;28;20499;-64
2023/05/18 03:37:55;;;;;;;0.70;0.70;;;;;;;;;;5138518;28;20201;-65
2023/05/18 03:40:23;;;;;;;0.88;0.88;;;;;;;;;;5138484;27;20214;-65
2023/05/18 03:42:52;;;;;;;1.27;1.00;;;;;;;;;;5138689;27;20210;-65
2023/05/18 03:45:19;;;;;;;0.77;0.77;;;;;;;;;;5138679;27;20202;-64
2023/05/18 03:47:47;;;;;;;0.73;0.73;;;;;;;;;;5138711;27;20210;-65
2023/05/18 03:50:15;;;;;;;0.70;0.70;;;;;;;;;;5138272;27;20214;-64
2023/05/18 03:52:43;;;;;;;0.80;0.80;;;;;;;;;;5138426;27;20209;-64
2023/05/18 03:55:11;;;;;;;0.95;0.95;;;;;;;;;;5138645;27;20460;-64
2023/05/18 03:57:38;;;;;;;1.02;0.82;;;;;;;;;;5138814;27;20202;-65
2023/05/18 04:00:11;;;;;;;0.88;0.85;;;;;;;;;;5138585;27;20222;-64
2023/05/18 04:02:38;;;;;;;1.80;0.75;;;;;;;;;;5138461;27;20199;-64
2023/05/18 04:05:06;;;;;;;0.90;0.90;;;;;;;;;;5138735;27;20202;-65
2023/05/18 04:07:42;;;;;;;0.90;0.90;;;;;;;;;;5138469;28;20582;-65
2023/05/18 04:10:09;;;;;;;0.90;0.80;;;;;;;;;;5138929;27;20202;-64
2023/05/18 04:12:37;;;;;;;0.85;0.77;;;;;;;;;;5137993;27;20230;-65
2023/05/18 04:15:04;;;;;;;0.98;0.80;;;;;;;;;;5140257;27;20225;-65
2023/05/18 04:17:34;;;;;;;0.73;0.73;;;;;;;;;;5142243;27;20202;-64
2023/05/18 04:20:11;;;;;;;0.98;0.80;;;;;;;;;;5142723;27;20206;-64
2023/05/18 04:22:42;;;;;;;0.93;0.70;;;;;;;;;;5142160;27;20197;-64
2023/05/18 04:25:10;;;;;;;0.88;0.88;;;;;;;;;;5141894;27;20292;-67
2023/05/18 04:27:38;;;;;;;1.00;0.90;;;;;;;;;;5141990;27;20255;-64
2023/05/18 04:30:07;;;;;;;1.00;0.90;;;;;;;;;;5141984;27;20202;-66
2023/05/18 04:32:36;;;;;;;1.63;0.77;;;;;;;;;;5142479;27;20316;-64
2023/05/18 04:35:05;;;;;;;0.77;0.77;;;;;;;;;;5141961;27;20202;-64
2023/05/18 04:37:32;;;;;;;0.98;0.80;;;;;;;;;;5141912;27;20213;-66
2023/05/18 04:40:01;;;;;;;0.80;0.80;;;;;;;;;;5141571;27;20202;-65
2023/05/18 04:42:29;;;;;;;1.25;0.80;;;;;;;;;;5141708;27;20209;-64
2023/05/18 04:44:56;;;;;;;0.82;0.80;;;;;;;;;;5142144;27;20202;-64
2023/05/18 04:47:23;;;;;;;0.70;0.70;;;;;;;;;;5142063;27;20206;-66
2023/05/18 04:49:52;;;;;;;1.00;0.90;;;;;;;;;;5141899;27;20201;-65
2023/05/18 04:52:20;;;;;;;0.70;0.70;;;;;;;;;;5141371;27;20234;-66
2023/05/18 04:54:47;;;;;;;1.35;0.80;;;;;;;;;;5141738;27;20209;-64
2023/05/18 04:57:15;;;;;;;0.80;0.80;;;;;;;;;;5141989;27;20202;-65
2023/05/18 04:59:46;;;;;;;0.70;0.70;;;;;;;;;;5141752;27;20210;-64
2023/05/18 05:02:13;;;;;;;1.27;0.80;;;;;;;;;;5141468;27;20609;-65
2023/05/18 05:04:41;;;;;;;0.85;0.70;;;;;;;;;;5141601;27;20202;-64
2023/05/18 05:07:10;;;;;;;1.00;0.90;;;;;;;;;;5141795;27;20266;-64
2023/05/18 05:09:37;;;;;;;0.80;0.80;;;;;;;;;;5141523;27;20649;-64
2023/05/18 05:12:05;;;;;;;0.60;0.60;;;;;;;;;;5141184;27;20230;-64
2023/05/18 05:14:32;;;;;;;1.00;0.90;;;;;;;;;;5141279;27;20283;-64
2023/05/18 05:16:59;;;;;;;1.52;0.80;;;;;;;;;;5141042;27;20217;-66
2023/05/18 05:19:27;;;;;;;0.80;0.80;;;;;;;;;;5140892;27;20202;-64
2023/05/18 05:21:54;;;;;;;0.98;0.90;;;;;;;;;;5140809;27;20198;-66
2023/05/18 05:24:23;;;;;;;0.80;0.80;;;;;;;;;;5141090;27;20199;-65
2023/05/18 05:26:50;;;;;;;0.80;0.70;;;;;;;;;;5140567;27;20220;-65
2023/05/18 05:29:18;;;;;;;0.82;0.80;;;;;;;;;;5140715;27;20202;-65
2023/05/18 05:31:45;;;;;;;1.00;0.90;;;;;;;;;;5140868;27;20245;-65
2023/05/18 05:34:13;;;;;;;1.00;0.90;;;;;;;;;;5140971;27;20215;-65
2023/05/18 05:36:40;;;;;;;0.80;0.70;;;;;;;;;;5140791;27;20214;-65
2023/05/18 05:39:08;;;;;;;0.93;0.70;;;;;;;;;;5140883;27;20195;-66
2023/05/18 05:41:37;;;;;;;0.80;0.80;;;;;;;;;;5140102;27;20293;-64
2023/05/18 05:44:04;;;;;;;0.95;0.88;;;;;;;;;;5140112;27;20206;-66
2023/05/18 05:46:31;;;;;;;0.90;0.80;;;;;;;;;;5140480;27;20202;-65
2023/05/18 05:48:59;;;;;;;0.90;0.88;;;;;;;;;;5140717;27;20206;-66
2023/05/18 05:51:26;;;;;;;0.82;0.82;;;;;;;;;;5140238;27;20268;-66
2023/05/18 05:53:54;;;;;;;1.10;0.80;;;;;;;;;;5139698;27;20213;-66
2023/05/18 05:56:21;;;;;;;0.80;0.80;;;;;;;;;;5139679;27;20202;-66
2023/05/18 05:58:50;;;;;;;1.00;0.90;;;;;;;;;;5139550;27;20612;-66
2023/05/18 06:01:17;;;;;;;0.80;0.80;;;;;;;;;;5139557;27;20198;-66
2023/05/18 06:03:45;;;;;;;0.80;0.80;;;;;;;;;;5139575;27;20198;-67
2023/05/18 06:06:13;;;;;;;0.98;0.85;;;;;;;;;;5140232;27;20213;-66
2023/05/18 06:08:41;;;;;;;1.05;0.80;;;;;;;;;;5139774;27;20202;-66
2023/05/18 06:11:08;;;;;;;0.82;0.70;;;;;;;;;;5139372;27;20202;-66
2023/05/18 06:13:35;;;;;;;0.77;0.77;;;;;;;;;;5139961;27;20202;-66
2023/05/18 06:16:04;;;;;;;0.65;0.65;;;;;;;;;;5140165;27;20496;-66
2023/05/18 06:18:32;;;;;;;0.85;0.85;;;;;;;;;;5139609;27;20209;-66
2023/05/18 06:20:59;;;;;;;0.90;0.90;;;;;;;;;;5139593;27;20213;-66
2023/05/18 06:23:27;;;;;;;0.90;0.90;;;;;;;;;;5139681;27;20209;-66
2023/05/18 06:25:54;;;;;;;0.85;0.80;;;;;;;;;;5139717;27;20205;-66
2023/05/18 06:28:22;;;;;;;0.70;0.70;;;;;;;;;;5139123;27;20229;-66
2023/05/18 06:30:49;;;;;;;1.17;1.08;;;;;;;;;;5139224;27;20209;-67
2023/05/18 06:33:20;;;;;;;0.95;0.70;;;;;;;;;;5139372;27;20222;-66
2023/05/18 06:35:47;;;;;;;0.93;0.80;;;;;;;;;;5138838;27;20202;-66
2023/05/18 06:38:14;;;;;;;0.68;0.68;;;;;;;;;;5138701;27;20242;-65
2023/05/18 06:40:42;;;;;;;0.80;0.80;;;;;;;;;;5139363;27;20202;-66
2023/05/18 06:43:09;;;;;;;1.30;0.90;;;;;;;;;;5138769;27;20206;-66
2023/05/18 06:45:36;;;;;;;1.25;0.70;;;;;;;;;;5138328;27;20202;-64
2023/05/18 06:48:04;;;;;;;1.15;0.90;;;;;;;;;;5138745;27;20602;-66
2023/05/18 06:50:33;;;;;;;1.15;0.90;;;;;;;;;;5138430;27;20205;-67
2023/05/18 06:53:01;;;;;;;0.90;0.90;;;;;;;;;;5138910;27;20500;-65
2023/05/18 06:55:28;;;;;;;1.00;0.90;;;;;;;;;;5138851;27;20349;-66
2023/05/18 06:57:57;;;;;;;1.10;1.00;;;;;;;;;;5138480;27;20198;-64
2023/05/18 07:00:25;;;;;;;0.70;0.70;;;;;;;;;;5138799;27;20209;-64
2023/05/18 07:02:52;;;;;;;1.10;0.95;;;;;;;;;;5138242;27;20202;-64
2023/05/18 07:05:19;;;;;;;0.70;0.70;;;;;;;;;;5138253;27;20225;-64
2023/05/18 07:07:48;;;;;;;0.85;0.80;;;;;;;;;;5138370;27;20202;-65
2023/05/18 07:10:15;;;;;;;0.80;0.75;;;;;;;;;;5138250;27;20301;-64
2023/05/18 07:12:43;;;;;;;0.82;0.70;;;;;;;;;;5137742;27;20522;-66
2023/05/18 07:15:11;;;;;;;1.30;0.80;;;;;;;;;;5138916;27;20213;-65
2023/05/18 07:17:38;;;;;;;1.00;0.90;;;;;;;;;;5137930;27;20244;-66
2023/05/18 07:20:06;;;;;;;0.70;0.70;;;;;;;;;;5137383;27;20223;-67
2023/05/18 07:22:34;;;;;;;0.80;0.75;;;;;;;;;;5137957;27;20205;-64
2023/05/18 07:25:02;;;;;;;0.70;0.70;;;;;;;;;;5137442;27;20238;-64
2023/05/18 07:27:32;;;;;;;0.85;0.80;;;;;;;;;;5137726;27;20242;-66
2023/05/18 07:29:59;;;;;;;1.58;0.90;;;;;;;;;;5138116;27;20230;-64
2023/05/18 07:32:26;;;;;;;0.90;0.70;;;;;;;;;;5138244;27;20218;-66
2023/05/18 07:34:53;;;;;;;1.00;0.80;;;;;;;;;;5138085;27;20213;-66
2023/05/18 07:37:21;;;;;;;0.80;0.80;;;;;;;;;;5137809;27;20213;-66
2023/05/18 07:39:48;;;;;;;1.60;0.80;;;;;;;;;;5137811;27;20205;-64
2023/05/18 07:42:17;;;;;;;1.60;0.80;;;;;;;;;;5137602;27;20205;-64
2023/05/18 07:44:45;;;;;;;0.73;0.73;;;;;;;;;;5138312;27;20543;-64
2023/05/18 07:47:12;;;;;;;1.00;0.93;;;;;;;;;;5137061;27;20206;-64
2023/05/18 07:49:39;;;;;;;1.63;0.82;;;;;;;;;;5138791;27;20500;-64
2023/05/18 07:52:08;;;;;;;0.63;0.63;;;;;;;;;;5142320;27;20225;-65
2023/05/18 07:54:35;;;;;;;1.02;0.90;;;;;;;;;;5141664;27;20233;-64
2023/05/18 07:57:03;;;;;;;1.05;0.80;;;;;;;;;;5141800;27;20217;-64
2023/05/18 07:59:31;;;;;;;0.95;0.85;;;;;;;;;;5142155;27;20290;-66
2023/05/18 08:01:59;;;;;;;0.82;0.82;;;;;;;;;;5141527;27;20198;-64
2023/05/18 08:04:26;;;;;;;0.95;0.80;;;;;;;;;;5141321;27;20537;-64
2023/05/18 08:06:55;;;;;;;2.08;0.90;;;;;;;;;;5141738;27;20588;-64
2023/05/18 08:09:22;;;;;;;0.90;0.90;;;;;;;;;;5141630;27;20582;-64
2023/05/18 08:11:50;;;;;;;0.90;0.85;;;;;;;;;;5141948;27;20225;-64
2023/05/18 08:14:17;;;;;;;1.17;0.80;;;;;;;;;;5141445;27;20202;-64
2023/05/18 08:16:46;;;;;;;1.17;0.80;;;;;;;;;;5141045;27;20203;-64
2023/05/18 08:19:14;;;;;;;0.90;0.90;;;;;;;;;;5141632;27;20198;-64
2023/05/18 08:21:41;;;;;;;1.08;0.90;;;;;;;;;;5140599;27;20693;-66
2023/05/18 08:24:10;;;;;;;1.23;0.73;;;;;;;;;;5140541;27;20507;-66
2023/05/18 08:26:37;;;;;;;0.80;0.80;;;;;;;;;;5139588;27;20198;-64
2023/05/18 08:29:08;;;;;;;0.95;0.85;;;;;;;;;;5120011;28;20214;-64
2023/05/18 08:31:36;;;;;;;0.90;0.80;;;;;;;;;;5120107;28;20475;-64
2023/05/18 08:34:05;;;;;;;1.27;1.00;;;;;;;;;;5120135;28;20311;-65
2023/05/18 08:36:34;;;;;;;1.08;0.98;;;;;;;;;;5120261;28;20207;-66
2023/05/18 08:39:03;;;;;;;1.30;1.02;;;;;;;;;;5120419;28;20213;-66
2023/05/18 08:41:31;;;;;;;1.10;0.90;;;;;;;;;;5119838;28;20242;-66
2023/05/18 08:44:02;;;;;;;1.30;0.90;;;;;;;;;;5120592;28;20206;-64
2023/05/18 08:46:33;;;;;;;1.60;0.80;;;;;;;;;;5119889;28;20203;-65
2023/05/18 08:49:02;;;;;;;1.00;0.90;;;;;;;;;;5120594;28;20486;-65
2023/05/18 08:51:34;;;;;;;1.15;0.93;;;;;;;;;;5120414;28;20246;-64
2023/05/18 08:54:01;;;;;;;1.20;0.85;;;;;;;;;;5119154;28;20661;-66
2023/05/18 08:56:31;;;;;;;1.45;1.00;;;;;;;;;;5118865;28;20238;-66
2023/05/18 08:58:59;;;;;;;1.08;0.80;;;;;;;;;;5119192;28;20210;-63
2023/05/18 09:01:28;;;;;;;0.85;0.77;;;;;;;;;;5119607;28;20203;-65
2023/05/18 09:03:56;;;;;;;0.85;0.68;;;;;;;;;;5119468;28;20231;-66
2023/05/18 09:06:25;;;;;;;0.90;0.73;;;;;;;;;;5119066;28;20203;-64
2023/05/18 09:08:54;;;;;;;1.38;0.95;;;;;;;;;;5119875;28;20264;-64
2023/05/18 09:11:22;;;;;;;1.52;0.98;;;;;;;;;;5120111;28;20285;-65
2023/05/18 09:13:50;;;;;;;1.13;0.90;;;;;;;;;;5119539;28;20226;-64
2023/05/18 09:16:17;;;;;;;1.02;0.90;;;;;;;;;;5119449;28;20210;-64
2023/05/18 09:18:45;;;;;;;0.82;0.80;;;;;;;;;;5119365;28;20203;-64
2023/05/18 09:21:13;;;;;;;1.25;0.88;;;;;;;;;;5119065;28;20225;-64
2023/05/18 09:23:40;;;;;;;1.10;0.80;;;;;;;;;;5119035;28;20205;-64
2023/05/18 09:26:10;;;;;;;2.30;0.90;;;;;;;;;;5119422;28;20206;-64
2023/05/18 09:28:38;;;;;;;1.08;0.98;;;;;;;;;;5114148;28;20234;-64
2023/05/18 09:31:07;;;;;;;1.52;1.13;;;;;;;;;;5119910;28;20583;-64
2023/05/18 09:33:36;;;;;;;1.10;1.00;;;;;;;;;;5118131;28;20287;-64
2023/05/18 09:36:05;;;;;;;2.28;1.17;;;;;;;;;;5118053;28;20203;-64
2023/05/18 09:38:37;;;;;;;1.55;1.13;;;;;;;;;;5118969;28;20252;-64
2023/05/18 09:41:04;;;;;;;1.45;1.02;;;;;;;;;;5118892;28;20202;-66
2023/05/18 09:43:36;;;;;;;1.98;1.02;;;;;;;;;;5119116;28;20218;-64
2023/05/18 09:46:07;;;;;;;1.67;1.08;;;;;;;;;;5119560;28;20210;-64
2023/05/18 09:48:36;;;;;;;1.42;1.00;;;;;;;;;;5117998;28;20203;-64
2023/05/18 09:51:05;;;;;;;1.30;0.98;;;;;;;;;;5119034;28;20253;-64
2023/05/18 09:53:32;;;;;;;1.10;1.00;;;;;;;;;;5118832;28;20287;-64
2023/05/18 09:56:02;;;;;;;1.38;1.02;;;;;;;;;;5118271;28;20703;-64
2023/05/18 09:58:34;;;;;;;2.55;1.17;;;;;;;;;;5119034;28;20652;-64
2023/05/18 10:01:02;;;;;;;2.30;1.10;;;;;;;;;;5118194;28;20195;-64
2023/05/18 10:03:32;;;;;;;1.10;1.00;;;;;;;;;;5118410;28;20500;-66
2023/05/18 10:06:02;;;;;;;1.63;1.13;;;;;;;;;;5118818;28;20210;-64
2023/05/18 10:08:29;;;;;;;2.15;1.10;;;;;;;;;;5119091;28;20575;-64
2023/05/18 10:10:57;;;;;;;1.88;0.95;;;;;;;;;;5118730;28;20202;-64
2023/05/18 10:13:26;;;;;;;1.73;0.80;;;;;;;;;;5117474;28;20234;-64
2023/05/18 10:15:55;;;;;;;1.27;1.05;;;;;;;;;;5118478;28;20203;-64
2023/05/18 10:18:24;;;;;;;1.33;0.90;;;;;;;;;;5118591;28;20214;-67
2023/05/18 10:20:52;;;;;;;1.42;1.02;;;;;;;;;;5118643;28;20543;-64
2023/05/18 10:23:20;;;;;;;1.85;1.15;;;;;;;;;;5117545;28;20206;-65
2023/05/18 10:25:48;;;;;;;1.02;0.90;;;;;;;;;;5117756;28;20451;-65
2023/05/18 10:28:23;;;;;;;1.50;1.10;;;;;;;;;;5118005;28;20241;-64
2023/05/18 10:30:51;;;;;;;1.45;1.02;;;;;;;;;;5117792;28;20268;-64
2023/05/18 10:33:21;;;;;;;1.20;1.10;;;;;;;;;;5117759;28;20277;-64
2023/05/18 10:35:49;;;;;;;1.65;1.40;;;;;;;;;;5116946;28;20206;-64
2023/05/18 10:38:19;;;;;;;1.45;1.13;;;;;;;;;;5118343;28;20473;-65
2023/05/18 10:40:48;;;;;;;1.42;1.20;;;;;;;;;;5117345;28;20203;-64
2023/05/18 10:43:16;;;;;;;1.40;1.00;;;;;;;;;;5118448;28;20218;-64
2023/05/18 10:45:45;;;;;;;1.90;1.30;;;;;;;;;;5117587;28;20203;-64
2023/05/18 10:48:13;;;;;;;1.63;1.40;;;;;;;;;;5118077;28;20693;-64
2023/05/18 10:50:42;;;;;;;1.13;1.00;;;;;;;;;;5117842;28;20203;-64
2023/05/18 10:53:10;;;;;;;1.85;1.00;;;;;;;;;;5116278;28;20227;-64
2023/05/18 10:55:38;;;;;;;1.55;1.13;;;;;;;;;;5116237;28;20598;-64
2023/05/18 10:58:09;;;;;;;1.75;1.10;;;;;;;;;;5117302;28;20635;-64
2023/05/18 11:00:37;;;;;;;1.65;1.05;;;;;;;;;;5116440;28;20202;-64
2023/05/18 11:03:08;;;;;;;1.00;0.90;;;;;;;;;;5116728;28;20202;-65
2023/05/18 11:05:35;;;;;;;1.50;1.10;;;;;;;;;;5116141;28;20579;-65
2023/05/18 11:08:05;;;;;;;2.08;1.25;;;;;;;;;;5116624;28;20204;-65
2023/05/18 11:10:36;;;;;;;1.45;1.00;;;;;;;;;;5116899;28;20582;-66
2023/05/18 11:13:03;;;;;;;1.60;1.42;;;;;;;;;;5117112;28;20230;-64
2023/05/18 11:15:49;;;;;;;1.35;1.02;;;;;;;;;;5117289;28;20210;-65
2023/05/18 11:18:16;;;;;;;2.35;1.30;;;;;;;;;;5116861;28;20210;-64
2023/05/18 11:20:45;;;;;;;0.65;0.65;;;;;;;;;;5116241;28;20602;-66
2023/05/18 11:23:17;;;;;;;1.00;0.85;;;;;;;;;;5116808;28;20202;-67
2023/05/18 11:25:44;;;;;;;1.52;1.00;;;;;;;;;;5117163;28;20203;-63
2023/05/18 11:28:12;;;;;;;3.30;1.02;;;;;;;;;;5111889;28;20239;-64
2023/05/18 11:30:48;;;;;;;1.30;1.00;;;;;;;;;;5117103;28;20202;-65
2023/05/18 11:33:18;;;;;;;1.70;1.00;;;;;;;;;;5116890;28;20294;-65
2023/05/18 11:36:07;;;;;;;1.10;0.80;;;;;;;;;;5117423;28;20520;-64
2023/05/18 11:38:49;;;;;;;1.05;1.00;;;;;;;;;;5117160;28;20560;-64
2023/05/18 11:41:45;;;;;;;1.90;1.08;;;;;;;;;;5116692;28;20598;-64
2023/05/18 11:44:16;;;;;;;2.13;1.00;;;;;;;;;;5058914;28;20267;-64
2023/05/18 11:46:54;;;;;;;2.00;0.93;;;;;;;;;;5116506;28;20203;-64
2023/05/18 11:49:23;;;;;;;1.58;1.00;;;;;;;;;;5117103;28;20210;-64
2023/05/18 11:51:57;;;;;;;1.65;1.10;;;;;;;;;;5116609;28;20230;-64
2023/05/18 11:54:26;;;;;;;1.10;1.00;;;;;;;;;;5116342;28;20230;-65
2023/05/18 11:56:54;;;;;;;1.48;0.88;;;;;;;;;;5116160;28;20571;-64
2023/05/18 11:59:31;;;;;;;1.08;0.98;;;;;;;;;;5116192;28;20218;-65
2023/05/18 12:01:59;;;;;;;4.00;1.25;;;;;;;;;;5116849;28;20560;-64
2023/05/18 12:04:28;;;;;;;2.15;0.90;;;;;;;;;;5116500;28;20203;-65
2023/05/18 12:06:55;;;;;;;1.30;1.10;;;;;;;;;;5116231;28;20195;-64
2023/05/18 12:09:23;;;;;;;1.23;1.02;;;;;;;;;;5116290;28;20195;-65
2023/05/18 12:11:52;;;;;;;1.65;1.20;;;;;;;;;;5116771;28;20211;-65
2023/05/18 12:14:20;;;;;;;2.60;0.95;;;;;;;;;;5116332;28;20218;-65
2023/05/18 12:16:49;;;;;;;1.40;1.08;;;;;;;;;;5116331;28;20232;-65
2023/05/18 12:19:18;;;;;;;2.40;1.13;;;;;;;;;;5116207;28;20307;-64
2023/05/18 12:21:46;;;;;;;1.45;1.00;;;;;;;;;;5115224;28;20268;-64
2023/05/18 12:24:13;;;;;;;1.70;1.00;;;;;;;;;;5115654;28;20284;-64
2023/05/18 12:26:41;;;;;;;1.55;1.02;;;;;;;;;;5117224;28;20211;-64
2023/05/18 12:29:13;;;;;;;1.05;1.00;;;;;;;;;;5137239;27;20574;-65
2023/05/18 12:31:41;;;;;;;1.33;1.00;;;;;;;;;;5136234;27;20575;-64
2023/05/18 12:34:10;;;;;;;1.30;0.98;;;;;;;;;;5130022;28;20218;-65
2023/05/18 12:36:43;;;;;;;1.73;1.13;;;;;;;;;;5138643;27;20206;-64
2023/05/18 12:39:10;;;;;;;2.20;1.00;;;;;;;;;;5140312;27;20233;-64
2023/05/18 12:41:38;;;;;;;1.52;1.10;;;;;;;;;;5140285;27;20274;-64
2023/05/18 12:44:05;;;;;;;1.67;1.10;;;;;;;;;;5139545;27;20644;-64
2023/05/18 12:46:34;;;;;;;1.35;0.98;;;;;;;;;;5140387;27;20613;-64
2023/05/18 12:49:03;;;;;;;1.38;1.05;;;;;;;;;;5139370;27;20199;-64
2023/05/18 12:51:35;;;;;;;1.23;1.10;;;;;;;;;;5139580;27;20205;-66
2023/05/18 12:54:02;;;;;;;1.60;1.10;;;;;;;;;;5139256;27;20226;-65
2023/05/18 12:56:50;;;;;;;1.27;1.00;;;;;;;;;;5139537;27;20201;-65
2023/05/18 12:59:18;;;;;;;1.70;1.20;;;;;;;;;;5139353;27;20212;-64
2023/05/18 13:01:47;;;;;;;1.23;1.00;;;;;;;;;;5140125;27;20279;-65
2023/05/18 13:04:14;;;;;;;1.00;0.90;;;;;;;;;;5140217;27;20281;-64
2023/05/18 13:06:42;;;;;;;1.60;1.08;;;;;;;;;;5140029;27;20229;-64
2023/05/18 13:09:09;;;;;;;2.15;1.05;;;;;;;;;;5140378;27;20210;-64
2023/05/18 13:11:37;;;;;;;1.42;1.10;;;;;;;;;;5139134;27;20206;-65
2023/05/18 13:14:05;;;;;;;1.25;0.90;;;;;;;;;;5139458;27;20271;-65
2023/05/18 13:16:33;;;;;;;2.05;1.25;;;;;;;;;;5139997;27;20202;-64
2023/05/18 13:19:03;;;;;;;1.30;1.20;;;;;;;;;;5139964;27;20297;-64
2023/05/18 13:21:30;;;;;;;3.00;1.30;;;;;;;;;;5139106;27;20212;-64
2023/05/18 13:23:58;;;;;;;1.50;1.25;;;;;;;;;;5139883;27;20207;-64
2023/05/18 13:26:25;;;;;;;2.05;1.40;;;;;;;;;;5139496;27;20194;-65
2023/05/18 13:28:54;;;;;;;1.85;1.10;;;;;;;;;;5138539;27;20288;-64
2023/05/18 13:31:22;;;;;;;2.00;1.13;;;;;;;;;;5139714;27;20306;-65
2023/05/18 13:33:49;;;;;;;1.92;1.10;;;;;;;;;;5154071;27;20601;-64
2023/05/18 13:36:18;;;;;;;1.65;1.20;;;;;;;;;;5160077;27;20208;-65
2023/05/18 13:38:46;;;;;;;1.42;1.00;;;;;;;;;;5160122;27;20556;-64
2023/05/18 13:41:14;;;;;;;1.73;1.27;;;;;;;;;;5160372;27;20209;-65
2023/05/18 13:43:41;;;;;;;1.95;1.10;;;;;;;;;;5159351;27;20224;-64
2023/05/18 13:46:09;;;;;;;1.25;1.10;;;;;;;;;;5159076;27;20563;-65
2023/05/18 13:48:36;;;;;;;1.70;1.17;;;;;;;;;;5159840;27;20204;-65
2023/05/18 13:51:03;;;;;;;2.70;1.25;;;;;;;;;;5159840;27;20201;-65
2023/05/18 13:53:33;;;;;;;3.22;1.35;;;;;;;;;;5159368;27;20708;-64
2023/05/18 13:56:00;;;;;;;2.22;1.20;;;;;;;;;;5158673;27;20585;-65
2023/05/18 13:58:27;;;;;;;2.58;1.33;;;;;;;;;;5159288;27;21204;-65
2023/05/18 14:00:55;;;;;;;1.77;1.40;;;;;;;;;;5159501;27;20609;-65
2023/05/18 14:03:22;;;;;;;2.45;1.33;;;;;;;;;;5159470;27;20209;-64
2023/05/18 14:05:51;;;;;;;3.20;1.42;;;;;;;;;;5158979;27;20204;-64
2023/05/18 14:08:18;;;;;;;1.33;1.10;;;;;;;;;;5159391;27;20727;-65
2023/05/18 14:10:47;;;;;;;2.10;1.45;;;;;;;;;;5159068;27;20214;-65
2023/05/18 14:13:14;;;;;;;2.40;1.40;;;;;;;;;;5158853;27;20209;-66
2023/05/18 14:15:41;;;;;;;1.77;1.30;;;;;;;;;;5158626;27;20222;-65
2023/05/18 14:18:09;;;;;;;1.55;1.13;;;;;;;;;;5157986;27;20208;-65
2023/05/18 14:20:36;;;;;;;2.33;1.35;;;;;;;;;;5157617;27;20581;-65
2023/05/18 14:23:04;;;;;;;1.45;1.00;;;;;;;;;;5157871;27;20202;-65
2023/05/18 14:25:31;;;;;;;1.60;1.13;;;;;;;;;;5158713;27;20205;-64
2023/05/18 14:28:00;;;;;;;1.80;1.30;;;;;;;;;;5157677;27;20252;-65
2023/05/18 14:30:27;;;;;;;1.80;1.30;;;;;;;;;;5157916;27;20221;-64
2023/05/18 14:32:55;;;;;;;1.40;1.30;;;;;;;;;;5157871;27;20206;-65
2023/05/18 14:35:22;;;;;;;1.83;1.15;;;;;;;;;;5156910;27;20267;-64
2023/05/18 14:37:49;;;;;;;2.58;1.20;;;;;;;;;;5158687;27;20205;-65
2023/05/18 14:40:17;;;;;;;1.30;1.17;;;;;;;;;;5158373;27;20499;-64
2023/05/18 14:42:44;;;;;;;1.38;1.20;;;;;;;;;;5158323;27;20212;-64
2023/05/18 14:45:13;;;;;;;1.55;1.40;;;;;;;;;;5158343;27;20194;-65
2023/05/18 14:47:40;;;;;;;1.52;1.25;;;;;;;;;;5158673;27;20213;-65
2023/05/18 14:50:08;;;;;;;1.38;1.25;;;;;;;;;;5159227;27;20614;-65
2023/05/18 14:52:35;;;;;;;1.83;1.20;;;;;;;;;;5158190;27;20212;-65